createdAt,value
2022-09-02T00:00:20.431Z,21.81
2022-09-02T00:02:53.671Z,21.83
2022-09-02T00:05:24.433Z,21.77
2022-09-02T00:08:01.977Z,21.73
2022-09-02T00:10:34.810Z,21.83
2022-09-02T00:13:06.334Z,21.70
2022-09-02T00:15:43.947Z,21.70
2022-09-02T00:18:18.140Z,21.71
2022-09-02T00:20:52.756Z,21.64
2022-09-02T00:23:23.753Z,21.60
2022-09-02T00:25:57.880Z,21.56
2022-09-02T00:28:28.640Z,21.64
2022-09-02T00:31:00.634Z,21.53
2022-09-02T00:33:28.756Z,21.56
2022-09-02T00:36:05.847Z,21.40
2022-09-02T00:38:40.870Z,21.44
2022-09-02T00:41:12.106Z,21.53
2022-09-02T00:43:55.260Z,21.36
2022-09-02T00:46:28.298Z,21.29
2022-09-02T00:49:23.400Z,21.29
2022-09-02T00:52:02.105Z,21.24
2022-09-02T00:54:41.147Z,21.12
2022-09-02T00:57:15.498Z,21.17
2022-09-02T01:00:18.291Z,21.24
2022-09-02T01:02:54.015Z,21.27
2022-09-02T01:05:24.267Z,21.13
2022-09-02T01:07:56.240Z,21.06
2022-09-02T01:10:30.874Z,20.92
2022-09-02T01:13:12.947Z,20.88
2022-09-02T01:15:45.480Z,20.95
2022-09-02T01:18:18.212Z,20.81
2022-09-02T01:20:54.981Z,20.86
2022-09-02T01:23:25.342Z,20.78
2022-09-02T01:25:57.353Z,20.50
2022-09-02T01:28:28.523Z,20.44
2022-09-02T01:30:59.070Z,20.43
2022-09-02T01:36:54.970Z,20.31
2022-09-02T01:39:22.747Z,20.07
2022-09-02T01:41:56.245Z,20.13
2022-09-02T01:44:24.315Z,20.44
2022-09-02T01:46:54.934Z,20.95
2022-09-02T01:49:26.060Z,21.32
2022-09-02T01:51:56.423Z,21.86
2022-09-02T01:54:24.338Z,21.82
2022-09-02T01:56:54.678Z,21.75
2022-09-02T01:59:27.964Z,21.74
2022-09-02T02:01:55.980Z,21.74
2022-09-02T02:04:24.843Z,21.79
2022-09-02T02:07:00.035Z,21.68
2022-09-02T02:09:32.741Z,21.67
2022-09-02T02:12:00.386Z,21.93
2022-09-02T02:14:34.046Z,21.85
2022-09-02T02:17:02.355Z,21.62
2022-09-02T02:19:35.494Z,21.72
2022-09-02T02:22:06.588Z,21.16
2022-09-02T02:24:40.111Z,21.28
2022-09-02T02:27:11.436Z,21.32
2022-09-02T02:29:42.371Z,21.32
2022-09-02T02:32:09.855Z,21.42
2022-09-02T02:34:38.058Z,21.42
2022-09-02T02:37:13.244Z,21.13
2022-09-02T02:39:42.762Z,21.19
2022-09-02T02:42:10.531Z,20.95
2022-09-02T02:44:41.679Z,20.49
2022-09-02T02:47:15.366Z,20.87
2022-09-02T02:49:47.548Z,20.24
2022-09-02T02:52:18.444Z,20.54
2022-09-02T02:54:50.878Z,20.20
2022-09-02T02:57:24.871Z,20.59
2022-09-02T03:00:02.763Z,20.22
2022-09-02T03:02:30.644Z,20.67
2022-09-02T03:05:03.780Z,20.24
2022-09-02T03:07:31.205Z,20.31
2022-09-02T03:10:05.403Z,20.11
2022-09-02T03:12:32.761Z,20.48
2022-09-02T03:15:00.160Z,19.93
2022-09-02T03:17:30.826Z,20.15
2022-09-02T03:19:58.228Z,20.16
2022-09-02T03:22:27.665Z,19.87
2022-09-02T03:24:55.168Z,20.15
2022-09-02T03:27:25.931Z,19.96
2022-09-02T03:29:57.334Z,19.85
2022-09-02T03:32:30.639Z,19.13
2022-09-02T03:34:58.714Z,19.95
2022-09-02T03:37:29.905Z,20.40
2022-09-02T03:40:05.758Z,20.13
2022-09-02T03:42:36.292Z,20.43
2022-09-02T03:45:05.114Z,20.88
2022-09-02T03:47:48.888Z,20.43
2022-09-02T03:50:17.891Z,20.26
2022-09-02T03:52:45.813Z,19.98
2022-09-02T03:55:18.390Z,19.99
2022-09-02T03:57:49.453Z,20.15
2022-09-02T04:00:20.715Z,19.86
2022-09-02T04:02:56.551Z,19.77
2022-09-02T04:05:28.652Z,20.14
2022-09-02T04:08:00.828Z,20.10
2022-09-02T04:10:32.054Z,20.11
2022-09-02T04:13:00.392Z,19.84
2022-09-02T04:15:38.798Z,19.37
2022-09-02T04:18:08.685Z,19.53
2022-09-02T04:20:43.415Z,19.44
2022-09-02T04:23:12.017Z,19.56
2022-09-02T04:25:47.313Z,19.76
2022-09-02T04:28:17.649Z,19.27
2022-09-02T04:30:48.986Z,19.43
2022-09-02T04:33:17.449Z,19.31
2022-09-02T04:35:52.139Z,18.94
2022-09-02T04:38:19.978Z,18.69
2022-09-02T04:40:50.593Z,18.74
2022-09-02T04:43:22.891Z,19.19
2022-09-02T04:45:51.146Z,18.77
2022-09-02T04:48:21.884Z,18.89
2022-09-02T04:50:55.294Z,18.49
2022-09-02T04:53:26.103Z,18.75
2022-09-02T04:56:00.476Z,19.23
2022-09-02T04:58:31.512Z,19.44
2022-09-02T05:01:08.533Z,18.94
2022-09-02T05:03:40.266Z,18.53
2022-09-02T05:06:15.787Z,18.67
2022-09-02T05:08:44.526Z,18.38
2022-09-02T05:11:15.814Z,18.74
2022-09-02T05:13:51.190Z,18.83
2022-09-02T05:16:22.256Z,18.95
2022-09-02T05:18:52.413Z,18.71
2022-09-02T05:21:23.242Z,18.66
2022-09-02T05:23:55.122Z,18.81
2022-09-02T05:26:26.830Z,18.86
2022-09-02T05:29:03.007Z,18.51
2022-09-02T05:31:34.796Z,18.97
2022-09-02T05:34:04.835Z,18.89
2022-09-02T05:36:34.833Z,19.17
2022-09-02T05:39:03.046Z,18.62
2022-09-02T05:41:34.287Z,19.12
2022-09-02T05:44:03.630Z,18.96
2022-09-02T05:46:31.901Z,18.29
2022-09-02T05:49:06.070Z,18.56
2022-09-02T05:51:55.737Z,18.64
2022-09-02T05:54:28.773Z,18.99
2022-09-02T05:57:01.836Z,18.97
2022-09-02T05:59:31.617Z,19.38
2022-09-02T06:02:02.391Z,19.44
2022-09-02T06:04:30.750Z,19.37
2022-09-02T06:07:01.536Z,19.43
2022-09-02T06:09:29.517Z,19.23
2022-09-02T06:12:03.198Z,19.37
2022-09-02T06:14:32.105Z,19.31
2022-09-02T06:17:05.799Z,19.95
2022-09-02T06:19:37.371Z,19.62
2022-09-02T06:22:08.755Z,18.87
2022-09-02T06:24:41.718Z,19.03
2022-09-02T06:27:09.135Z,19.30
2022-09-02T06:29:42.304Z,19.02
2022-09-02T06:32:15.697Z,18.75
2022-09-02T06:34:47.153Z,18.46
2022-09-02T06:37:18.228Z,18.92
2022-09-02T06:39:46.020Z,18.58
2022-09-02T06:42:20.070Z,18.71
2022-09-02T06:44:53.188Z,18.87
2022-09-02T06:47:21.014Z,19.25
2022-09-02T06:49:54.638Z,19.06
2022-09-02T06:52:22.225Z,18.57
2022-09-02T06:54:56.066Z,18.55
2022-09-02T06:57:31.385Z,19.06
2022-09-02T07:00:09.877Z,19.37
2022-09-02T07:02:38.441Z,18.99
2022-09-02T07:05:09.431Z,19.53
2022-09-02T07:07:42.241Z,18.96
2022-09-02T07:10:12.502Z,19.29
2022-09-02T07:12:44.475Z,18.85
2022-09-02T07:15:15.054Z,19.30
2022-09-02T07:17:46.132Z,18.73
2022-09-02T07:20:14.321Z,18.79
2022-09-02T07:22:46.813Z,18.95
2022-09-02T07:25:19.271Z,17.87
2022-09-02T07:27:46.742Z,18.76
2022-09-02T07:30:21.789Z,18.79
2022-09-02T07:32:49.794Z,18.82
2022-09-02T07:35:24.264Z,19.45
2022-09-02T07:37:54.970Z,18.82
2022-09-02T07:40:28.321Z,19.12
2022-09-02T07:45:24.493Z,19.14
2022-09-02T07:47:54.690Z,19.20
2022-09-02T07:50:25.532Z,19.41
2022-09-02T07:52:58.092Z,19.47
2022-09-02T07:55:32.576Z,19.65
2022-09-02T07:58:00.086Z,19.52
2022-09-02T08:00:31.576Z,18.95
2022-09-02T08:03:00.336Z,19.09
2022-09-02T08:05:28.398Z,18.99
2022-09-02T08:07:59.176Z,19.07
2022-09-02T08:10:30.106Z,19.62
2022-09-02T08:12:59.155Z,19.55
2022-09-02T08:15:37.828Z,19.63
2022-09-02T08:18:08.797Z,19.70
2022-09-02T08:20:50.327Z,19.72
2022-09-02T08:23:38.209Z,19.51
2022-09-02T08:26:06.289Z,19.29
2022-09-02T08:28:36.956Z,19.45
2022-09-02T08:31:07.477Z,19.25
2022-09-02T08:33:40.611Z,19.36
2022-09-02T08:36:09.547Z,19.61
2022-09-02T08:38:39.672Z,19.58
2022-09-02T08:41:22.060Z,19.36
2022-09-02T08:43:54.931Z,19.53
2022-09-02T08:46:24.972Z,19.42
2022-09-02T08:48:56.996Z,19.56
2022-09-02T08:51:37.347Z,19.58
2022-09-02T08:54:13.380Z,19.67
2022-09-02T08:56:47.394Z,19.64
2022-09-02T08:59:15.442Z,19.73
2022-09-02T09:01:54.772Z,19.33
2022-09-02T09:04:58.656Z,19.16
2022-09-02T09:07:37.795Z,19.23
2022-09-02T09:10:19.722Z,19.34
2022-09-02T09:13:21.927Z,19.42
2022-09-02T09:15:59.356Z,19.66
2022-09-02T09:18:39.139Z,19.35
2022-09-02T09:21:12.874Z,19.22
2022-09-02T09:23:41.581Z,19.54
2022-09-02T09:26:17.168Z,19.63
2022-09-02T09:28:49.948Z,19.41
2022-09-02T09:31:21.169Z,19.30
2022-09-02T09:34:03.038Z,18.88
2022-09-02T09:36:54.431Z,18.96
2022-09-02T09:39:31.429Z,18.94
2022-09-02T09:42:03.683Z,19.00
2022-09-02T09:44:40.072Z,19.27
2022-09-02T09:47:19.206Z,19.33
2022-09-02T09:49:51.973Z,19.48
2022-09-02T09:52:28.205Z,19.89
2022-09-02T09:55:24.678Z,19.40
2022-09-02T09:58:07.746Z,19.24
2022-09-02T10:00:40.957Z,19.62
2022-09-02T10:03:23.075Z,19.55
2022-09-02T10:06:16.216Z,19.89
2022-09-02T10:08:56.548Z,19.87
2022-09-02T10:11:32.651Z,19.84
2022-09-02T10:14:02.710Z,20.06
2022-09-02T10:16:57.770Z,20.19
2022-09-02T10:19:44.929Z,19.81
2022-09-02T10:22:37.924Z,19.86
2022-09-02T10:25:57.092Z,19.71
2022-09-02T10:28:30.711Z,20.01
2022-09-02T10:31:16.378Z,19.94
2022-09-02T10:34:19.788Z,19.90
2022-09-02T10:36:50.779Z,19.56
2022-09-02T10:39:27.606Z,19.56
2022-09-02T10:42:16.776Z,20.06
2022-09-02T10:45:02.292Z,19.71
2022-09-02T10:48:13.577Z,19.68
2022-09-02T10:51:01.155Z,19.68
2022-09-02T10:53:54.742Z,19.47
2022-09-02T10:56:32.698Z,19.54
2022-09-02T10:59:09.969Z,19.71
2022-09-02T11:02:07.262Z,19.10
2022-09-02T11:04:44.729Z,19.46
2022-09-02T11:07:18.613Z,19.24
2022-09-02T11:10:03.108Z,19.57
2022-09-02T11:12:38.490Z,19.45
2022-09-02T11:15:38.836Z,19.91
2022-09-02T11:21:10.464Z,20.00
2022-09-02T11:23:55.343Z,20.15
2022-09-02T11:26:49.971Z,19.77
2022-09-02T11:29:27.231Z,20.11
2022-09-02T11:32:31.951Z,19.58
2022-09-02T11:35:03.221Z,19.71
2022-09-02T11:37:43.729Z,19.95
2022-09-02T11:40:34.171Z,19.88
2022-09-02T11:43:17.554Z,20.49
2022-09-02T11:45:52.633Z,20.23
2022-09-02T11:49:01.259Z,20.28
2022-09-02T11:51:51.540Z,20.23
2022-09-02T11:54:28.886Z,20.43
2022-09-02T11:57:03.981Z,20.23
2022-09-02T11:59:54.967Z,19.99
2022-09-02T12:02:48.003Z,19.98
2022-09-02T12:05:34.238Z,19.87
2022-09-02T12:08:27.524Z,19.67
2022-09-02T12:11:37.249Z,19.59
2022-09-02T12:14:27.698Z,19.56
2022-09-02T12:17:39.547Z,19.58
2022-09-02T12:20:58.472Z,20.08
2022-09-02T12:23:57.973Z,19.94
2022-09-02T12:26:40.105Z,20.06
2022-09-02T12:29:39.694Z,20.31
2022-09-02T12:32:12.015Z,19.90
2022-09-02T12:34:44.689Z,20.09
2022-09-02T12:37:53.822Z,19.90
2022-09-02T12:40:32.501Z,20.22
2022-09-02T12:43:22.921Z,20.13
2022-09-02T12:45:58.284Z,20.01
2022-09-02T12:48:43.951Z,19.99
2022-09-02T12:51:49.927Z,19.98
2022-09-02T12:54:47.342Z,20.38
2022-09-02T12:57:17.810Z,20.24
2022-09-02T12:59:47.894Z,20.14
2022-09-02T13:02:44.859Z,20.00
2022-09-02T13:05:37.584Z,19.92
2022-09-02T13:08:21.463Z,20.14
2022-09-02T13:11:14.846Z,19.92
2022-09-02T13:14:00.862Z,19.86
2022-09-02T13:17:25.836Z,19.91
2022-09-02T13:20:18.642Z,19.99
2022-09-02T13:23:13.468Z,19.84
2022-09-02T13:26:00.122Z,20.05
2022-09-02T13:28:52.245Z,20.11
2022-09-02T13:31:30.193Z,20.11
2022-09-02T13:34:10.761Z,20.40
2022-09-02T13:36:46.316Z,20.07
2022-09-02T13:39:25.397Z,19.92
2022-09-02T13:41:53.258Z,19.38
2022-09-02T13:44:28.205Z,19.62
2022-09-02T13:47:13.023Z,19.74
2022-09-02T13:49:43.002Z,19.99
2022-09-02T13:52:55.034Z,19.83
2022-09-02T13:55:18.226Z,19.95
2022-09-02T13:58:07.460Z,19.95
2022-09-02T14:00:37.103Z,20.11
2022-09-02T14:03:17.640Z,19.79
2022-09-02T14:05:56.429Z,19.90
2022-09-02T14:08:29.033Z,19.96
2022-09-02T14:11:09.661Z,19.76
2022-09-02T14:13:46.500Z,19.90
2022-09-02T14:16:34.583Z,19.90
2022-09-02T14:19:28.741Z,19.71
2022-09-02T14:21:58.057Z,19.91
2022-09-02T14:24:30.609Z,20.06
2022-09-02T14:27:00.172Z,19.87
2022-09-02T14:29:33.633Z,19.98
2022-09-02T14:32:11.693Z,19.94
2022-09-02T14:34:47.811Z,19.84
2022-09-02T14:37:22.698Z,19.64
2022-09-02T14:40:04.698Z,19.78
2022-09-02T14:42:36.360Z,19.65
2022-09-02T14:45:13.236Z,19.66
2022-09-02T14:47:48.088Z,20.17
2022-09-02T14:50:25.299Z,20.17
2022-09-02T14:53:00.354Z,20.36
2022-09-02T14:55:49.866Z,20.30
2022-09-02T14:58:18.235Z,20.60
2022-09-02T15:00:51.843Z,20.22
2022-09-02T15:03:20.272Z,20.00
2022-09-02T15:05:50.802Z,20.08
2022-09-02T15:08:22.547Z,19.99
2022-09-02T15:10:58.092Z,20.13
2022-09-02T15:13:38.229Z,20.52
2022-09-02T15:16:09.485Z,20.58
2022-09-02T15:18:39.964Z,20.54
2022-09-02T15:21:07.820Z,20.69
2022-09-02T15:23:41.029Z,20.39
2022-09-02T15:26:15.380Z,20.57
2022-09-02T15:28:46.129Z,20.48
2022-09-02T15:31:15.128Z,20.33
2022-09-02T15:33:52.125Z,20.18
2022-09-02T15:36:28.852Z,20.07
2022-09-02T15:39:07.378Z,19.91
2022-09-02T15:41:49.207Z,20.04
2022-09-02T15:44:26.059Z,20.02
2022-09-02T15:49:51.442Z,20.16
2022-09-02T15:52:26.841Z,20.04
2022-09-02T15:54:55.088Z,20.08
2022-09-02T15:57:38.272Z,20.14
2022-09-02T16:00:15.266Z,20.07
2022-09-02T16:02:50.352Z,19.84
2022-09-02T16:05:32.099Z,19.82
2022-09-02T16:08:06.396Z,19.94
2022-09-02T16:10:37.976Z,20.22
2022-09-02T16:13:20.346Z,19.83
2022-09-02T16:16:10.610Z,19.92
2022-09-02T16:18:46.405Z,19.93
2022-09-02T16:21:26.435Z,20.26
2022-09-02T16:24:00.541Z,20.16
2022-09-02T16:26:35.710Z,19.99
2022-09-02T16:29:20.692Z,20.19
2022-09-02T16:35:06.453Z,19.96
2022-09-02T16:37:37.163Z,19.95
2022-09-02T16:40:06.173Z,19.95
2022-09-02T16:45:41.572Z,19.79
2022-09-02T16:48:25.618Z,19.99
2022-09-02T16:51:15.492Z,20.00
2022-09-02T16:53:50.230Z,19.93
2022-09-02T16:56:27.721Z,19.89
2022-09-02T16:59:11.933Z,19.84
2022-09-02T17:01:50.134Z,19.98
2022-09-02T17:04:36.212Z,19.89
2022-09-02T17:07:19.911Z,19.95
2022-09-02T17:09:56.455Z,19.82
2022-09-02T17:15:35.520Z,19.67
2022-09-02T17:21:24.414Z,19.90
2022-09-02T17:24:07.148Z,19.95
2022-09-02T17:26:51.524Z,20.02
2022-09-02T17:29:48.907Z,19.78
2022-09-02T17:32:23.627Z,19.58
2022-09-02T17:34:50.878Z,19.58
2022-09-02T17:37:22.072Z,19.66
2022-09-02T17:39:49.584Z,19.66
2022-09-02T17:42:20.841Z,19.67
2022-09-02T17:44:48.036Z,19.45
2022-09-02T17:47:21.481Z,19.38
2022-09-02T17:49:52.105Z,19.08
2022-09-02T17:52:25.916Z,19.21
2022-09-02T17:54:53.965Z,19.15
2022-09-02T17:57:30.477Z,19.10
2022-09-02T18:00:03.567Z,19.04
2022-09-02T18:02:38.168Z,19.64
2022-09-02T18:05:21.023Z,19.85
2022-09-02T18:08:12.650Z,19.65
2022-09-02T18:10:58.590Z,19.77
2022-09-02T18:14:04.710Z,20.00
2022-09-02T18:16:37.489Z,19.75
2022-09-02T18:19:39.380Z,19.65
2022-09-02T18:22:37.511Z,19.53
2022-09-02T18:25:41.482Z,19.60
2022-09-02T18:28:54.176Z,20.04
2022-09-02T18:35:03.659Z,20.40
2022-09-02T18:37:58.231Z,20.73
2022-09-02T18:40:34.307Z,20.85
2022-09-02T18:43:34.118Z,20.70
2022-09-02T18:46:09.531Z,20.78
2022-09-02T18:48:44.805Z,20.35
2022-09-02T18:51:40.084Z,19.92
2022-09-02T18:54:25.929Z,19.15
2022-09-02T18:57:05.270Z,18.95
2022-09-02T18:59:47.242Z,19.46
2022-09-02T19:02:46.080Z,20.08
2022-09-02T19:05:34.332Z,20.38
2022-09-02T19:11:09.334Z,20.35
2022-09-02T19:13:57.065Z,20.46
2022-09-02T19:19:24.187Z,20.59
2022-09-02T19:22:01.761Z,20.42
2022-09-02T19:24:52.166Z,20.34
2022-09-02T19:27:30.687Z,20.04
2022-09-02T19:30:16.261Z,19.91
2022-09-02T19:33:02.901Z,19.94
2022-09-02T19:35:44.105Z,20.11
2022-09-02T19:38:14.672Z,19.34
2022-09-02T19:40:45.285Z,18.60
2022-09-02T19:43:18.281Z,18.23
2022-09-02T19:46:01.333Z,18.19
2022-09-02T19:48:32.468Z,18.02
2022-09-02T19:51:12.627Z,17.96
2022-09-02T19:53:51.803Z,17.95
2022-09-02T19:56:25.751Z,17.86
2022-09-02T19:58:55.948Z,17.80
2022-09-02T20:01:28.372Z,17.77
2022-09-02T20:03:56.050Z,17.75
2022-09-02T20:06:28.297Z,17.83
2022-09-02T20:08:58.885Z,17.74
2022-09-02T20:11:29.422Z,17.65
2022-09-02T20:14:02.128Z,17.67
2022-09-02T20:16:32.887Z,17.57
2022-09-02T20:19:05.807Z,17.51
2022-09-02T20:21:44.684Z,17.63
2022-09-02T20:24:22.359Z,17.70
2022-09-02T20:27:04.198Z,17.80
2022-09-02T20:32:54.297Z,17.77
2022-09-02T20:35:44.158Z,17.68
2022-09-02T20:38:40.254Z,17.68
2022-09-02T20:41:54.597Z,17.70
2022-09-02T20:44:41.312Z,17.57
2022-09-02T20:47:44.896Z,17.53
2022-09-02T20:50:30.832Z,17.45
2022-09-02T20:53:24.288Z,17.45
2022-09-02T20:56:21.806Z,17.52
2022-09-02T20:59:34.691Z,17.42
2022-09-02T21:02:07.301Z,17.42
2022-09-02T21:04:49.653Z,17.39
2022-09-02T21:07:47.463Z,17.33
2022-09-02T21:10:35.935Z,17.31
2022-09-02T21:13:33.867Z,17.32
2022-09-02T21:16:09.244Z,17.26
2022-09-02T21:18:52.706Z,17.16
2022-09-02T21:22:05.964Z,17.24
2022-09-02T21:24:50.868Z,17.10
2022-09-02T21:27:28.969Z,17.13
2022-09-02T21:30:06.135Z,17.19
2022-09-02T21:32:51.919Z,17.19
2022-09-02T21:35:37.323Z,17.09
2022-09-02T21:38:12.911Z,17.12
2022-09-02T21:41:21.808Z,17.11
2022-09-02T21:44:02.359Z,17.31
2022-09-02T21:46:37.075Z,17.10
2022-09-02T21:49:16.609Z,17.07
2022-09-02T21:52:01.586Z,17.11
2022-09-02T21:54:53.222Z,17.00
2022-09-02T21:57:56.313Z,16.95
2022-09-02T22:00:35.585Z,17.08
2022-09-02T22:03:18.962Z,17.05
2022-09-02T22:06:21.293Z,17.05
2022-09-02T22:09:00.269Z,17.06
2022-09-02T22:11:52.029Z,16.99
2022-09-02T22:15:11.826Z,16.92
2022-09-02T22:17:51.475Z,16.97
2022-09-02T22:20:25.711Z,16.87
2022-09-02T22:23:09.327Z,16.85
2022-09-02T22:25:39.960Z,16.90
2022-09-02T22:28:15.387Z,16.78
2022-09-02T22:31:10.751Z,16.91
2022-09-02T22:33:49.911Z,16.82
2022-09-02T22:36:42.271Z,16.76
2022-09-02T22:39:13.730Z,16.85
2022-09-02T22:42:15.494Z,16.82
2022-09-02T22:45:03.878Z,16.78
2022-09-02T22:47:34.883Z,16.91
2022-09-02T22:50:09.707Z,16.83
2022-09-02T22:52:47.455Z,16.82
2022-09-02T22:55:22.476Z,16.86
2022-09-02T22:58:12.561Z,16.80
2022-09-02T23:01:00.804Z,16.73
2022-09-02T23:03:48.210Z,16.72
2022-09-02T23:06:24.474Z,16.70
2022-09-02T23:08:52.261Z,16.63
2022-09-02T23:11:34.720Z,16.61
2022-09-02T23:14:28.135Z,16.70
2022-09-02T23:17:10.767Z,16.78
2022-09-02T23:19:43.823Z,16.62
2022-09-02T23:22:21.694Z,16.75
2022-09-02T23:25:14.474Z,16.76
2022-09-02T23:27:47.076Z,16.78
2022-09-02T23:30:23.220Z,16.74
2022-09-02T23:33:01.413Z,16.63
2022-09-02T23:35:51.585Z,16.70
2022-09-02T23:39:03.706Z,16.78
2022-09-02T23:41:34.753Z,16.62
2022-09-02T23:44:08.578Z,16.74
2022-09-02T23:46:51.533Z,16.79
2022-09-02T23:49:35.097Z,16.77
2022-09-02T23:52:05.421Z,16.71
2022-09-02T23:54:37.153Z,16.67
2022-09-02T23:57:35.109Z,16.71
